sensor_id;sensor_type;location;lat;lon;timestamp;pressure;altitude;pressure_sealevel;temperature;humidity
17311;BME280;8773;43.300;0.394;2023-02-13T00:01:18;101256.97;;;3.66;53.08
17311;BME280;8773;43.300;0.394;2023-02-13T00:03:46;101261.41;;;3.66;53.19
17311;BME280;8773;43.300;0.394;2023-02-13T00:06:14;101257.91;;;3.65;52.83
17311;BME280;8773;43.300;0.394;2023-02-13T00:08:44;101262.41;;;3.63;53.26
17311;BME280;8773;43.300;0.394;2023-02-13T00:11:12;101259.75;;;3.63;53.00
17311;BME280;8773;43.300;0.394;2023-02-13T00:13:40;101254.41;;;3.46;53.05
17311;BME280;8773;43.300;0.394;2023-02-13T00:16:08;101264.13;;;3.45;53.30
17311;BME280;8773;43.300;0.394;2023-02-13T00:18:38;101262.13;;;3.51;53.18
17311;BME280;8773;43.300;0.394;2023-02-13T00:21:07;101266.41;;;3.53;53.37
17311;BME280;8773;43.300;0.394;2023-02-13T00:23:37;101261.75;;;3.58;52.58
17311;BME280;8773;43.300;0.394;2023-02-13T00:26:12;101266.25;;;3.56;52.97
17311;BME280;8773;43.300;0.394;2023-02-13T00:28:40;101265.84;;;3.47;53.82
17311;BME280;8773;43.300;0.394;2023-02-13T00:31:11;101262.19;;;3.49;53.21
17311;BME280;8773;43.300;0.394;2023-02-13T00:33:40;101263.41;;;3.42;53.41
17311;BME280;8773;43.300;0.394;2023-02-13T00:36:12;101263.41;;;3.42;53.58
17311;BME280;8773;43.300;0.394;2023-02-13T00:38:41;101252.22;;;3.37;53.88
17311;BME280;8773;43.300;0.394;2023-02-13T00:41:11;101253.66;;;3.25;54.01
17311;BME280;8773;43.300;0.394;2023-02-13T00:43:40;101254.28;;;3.30;53.21
17311;BME280;8773;43.300;0.394;2023-02-13T00:46:10;101259.34;;;3.35;53.58
17311;BME280;8773;43.300;0.394;2023-02-13T00:48:39;101255.84;;;3.34;53.40
17311;BME280;8773;43.300;0.394;2023-02-13T00:51:07;101257.72;;;3.32;53.52
17311;BME280;8773;43.300;0.394;2023-02-13T00:53:36;101256.84;;;3.32;53.31
17311;BME280;8773;43.300;0.394;2023-02-13T00:56:05;101257.16;;;3.26;53.85
17311;BME280;8773;43.300;0.394;2023-02-13T00:58:35;101244.91;;;3.25;54.00
17311;BME280;8773;43.300;0.394;2023-02-13T01:01:04;101257.31;;;3.23;54.16
17311;BME280;8773;43.300;0.394;2023-02-13T01:03:34;101259.44;;;3.15;53.98
17311;BME280;8773;43.300;0.394;2023-02-13T01:06:03;101258.72;;;3.11;54.53
17311;BME280;8773;43.300;0.394;2023-02-13T01:08:32;101253.00;;;3.01;54.31
17311;BME280;8773;43.300;0.394;2023-02-13T01:11:00;101250.38;;;3.01;54.67
17311;BME280;8773;43.300;0.394;2023-02-13T01:13:28;101250.25;;;3.04;53.68
17311;BME280;8773;43.300;0.394;2023-02-13T01:15:57;101259.06;;;3.03;54.45
17311;BME280;8773;43.300;0.394;2023-02-13T01:18:26;101258.28;;;3.01;54.33
17311;BME280;8773;43.300;0.394;2023-02-13T01:20:55;101256.66;;;2.99;53.82
17311;BME280;8773;43.300;0.394;2023-02-13T01:23:25;101255.50;;;3.04;53.54
17311;BME280;8773;43.300;0.394;2023-02-13T01:25:53;101255.50;;;3.04;53.65
17311;BME280;8773;43.300;0.394;2023-02-13T01:28:21;101259.88;;;3.05;54.23
17311;BME280;8773;43.300;0.394;2023-02-13T01:30:52;101257.94;;;3.09;54.19
17311;BME280;8773;43.300;0.394;2023-02-13T01:33:22;101256.56;;;3.00;53.86
17311;BME280;8773;43.300;0.394;2023-02-13T01:35:51;101265.56;;;2.96;54.85
17311;BME280;8773;43.300;0.394;2023-02-13T01:38:19;101270.84;;;2.96;54.45
17311;BME280;8773;43.300;0.394;2023-02-13T01:40:49;101262.84;;;2.98;54.07
17311;BME280;8773;43.300;0.394;2023-02-13T01:43:19;101270.25;;;2.90;54.16
17311;BME280;8773;43.300;0.394;2023-02-13T01:45:51;101274.66;;;2.89;53.97
17311;BME280;8773;43.300;0.394;2023-02-13T01:48:24;101279.88;;;2.91;53.93
17311;BME280;8773;43.300;0.394;2023-02-13T01:50:59;101282.09;;;2.81;53.86
17311;BME280;8773;43.300;0.394;2023-02-13T01:53:30;101269.38;;;2.70;54.11
17311;BME280;8773;43.300;0.394;2023-02-13T01:56:04;101272.94;;;2.69;54.43
17311;BME280;8773;43.300;0.394;2023-02-13T01:58:37;101285.94;;;2.74;53.73
17311;BME280;8773;43.300;0.394;2023-02-13T02:01:07;101273.28;;;2.62;54.22
17311;BME280;8773;43.300;0.394;2023-02-13T02:03:40;101287.44;;;2.59;54.20
17311;BME280;8773;43.300;0.394;2023-02-13T02:06:14;101296.88;;;2.65;54.90
17311;BME280;8773;43.300;0.394;2023-02-13T02:08:44;101290.16;;;2.58;54.42
17311;BME280;8773;43.300;0.394;2023-02-13T02:11:24;101291.00;;;2.58;53.91
17311;BME280;8773;43.300;0.394;2023-02-13T02:13:55;101264.47;;;2.42;54.39
17311;BME280;8773;43.300;0.394;2023-02-13T02:16:24;101292.84;;;2.56;54.24
17311;BME280;8773;43.300;0.394;2023-02-13T02:18:54;101290.28;;;2.55;54.30
17311;BME280;8773;43.300;0.394;2023-02-13T02:21:55;101288.72;;;2.51;54.62
17311;BME280;8773;43.300;0.394;2023-02-13T02:28:00;101294.19;;;2.26;55.52
17311;BME280;8773;43.300;0.394;2023-02-13T02:30:56;101283.97;;;2.38;55.33
17311;BME280;8773;43.300;0.394;2023-02-13T02:33:36;101282.22;;;2.39;55.29
17311;BME280;8773;43.300;0.394;2023-02-13T02:36:22;101284.56;;;2.45;54.95
17311;BME280;8773;43.300;0.394;2023-02-13T02:39:01;101283.06;;;2.39;55.33
17311;BME280;8773;43.300;0.394;2023-02-13T02:41:40;101289.13;;;2.41;55.52
17311;BME280;8773;43.300;0.394;2023-02-13T02:44:18;101289.38;;;2.35;54.96
17311;BME280;8773;43.300;0.394;2023-02-13T02:46:57;101288.28;;;2.41;55.05
17311;BME280;8773;43.300;0.394;2023-02-13T02:49:53;101283.97;;;2.38;54.92
17311;BME280;8773;43.300;0.394;2023-02-13T02:52:38;101292.16;;;2.32;55.54
17311;BME280;8773;43.300;0.394;2023-02-13T02:55:12;101296.75;;;2.27;55.38
17311;BME280;8773;43.300;0.394;2023-02-13T02:57:45;101297.25;;;2.15;55.73
17311;BME280;8773;43.300;0.394;2023-02-13T03:00:36;101300.56;;;2.20;55.63
17311;BME280;8773;43.300;0.394;2023-02-13T03:03:24;101293.19;;;2.28;55.71
17311;BME280;8773;43.300;0.394;2023-02-13T03:06:15;101286.47;;;2.21;55.67
17311;BME280;8773;43.300;0.394;2023-02-13T03:08:52;101298.72;;;2.22;56.04
17311;BME280;8773;43.300;0.394;2023-02-13T03:11:40;101293.72;;;2.16;55.83
17311;BME280;8773;43.300;0.394;2023-02-13T03:14:27;101298.59;;;2.25;55.25
17311;BME280;8773;43.300;0.394;2023-02-13T03:16:57;101297.81;;;2.23;55.69
17311;BME280;8773;43.300;0.394;2023-02-13T03:19:57;101288.31;;;2.19;55.50
17311;BME280;8773;43.300;0.394;2023-02-13T03:22:59;101297.63;;;2.28;55.14
17311;BME280;8773;43.300;0.394;2023-02-13T03:25:39;101292.22;;;2.31;55.11
17311;BME280;8773;43.300;0.394;2023-02-13T03:28:16;101290.81;;;2.22;55.22
17311;BME280;8773;43.300;0.394;2023-02-13T03:31:09;101294.38;;;2.21;55.19
17311;BME280;8773;43.300;0.394;2023-02-13T03:33:53;101294.38;;;2.21;54.72
17311;BME280;8773;43.300;0.394;2023-02-13T03:36:31;101293.72;;;2.16;55.01
17311;BME280;8773;43.300;0.394;2023-02-13T03:39:22;101287.41;;;2.20;55.25
17311;BME280;8773;43.300;0.394;2023-02-13T03:41:59;101284.50;;;2.26;54.96
17311;BME280;8773;43.300;0.394;2023-02-13T03:44:35;101294.13;;;2.27;54.28
17311;BME280;8773;43.300;0.394;2023-02-13T03:47:07;101296.94;;;2.23;54.96
17311;BME280;8773;43.300;0.394;2023-02-13T03:49:39;101298.84;;;2.19;55.20
17311;BME280;8773;43.300;0.394;2023-02-13T03:52:29;101294.50;;;2.18;55.21
17311;BME280;8773;43.300;0.394;2023-02-13T03:55:04;101287.47;;;2.19;54.45
17311;BME280;8773;43.300;0.394;2023-02-13T03:57:52;101295.50;;;2.16;54.62
17311;BME280;8773;43.300;0.394;2023-02-13T04:00:45;101295.56;;;2.14;54.46
17311;BME280;8773;43.300;0.394;2023-02-13T04:03:19;101294.81;;;2.10;54.45
17311;BME280;8773;43.300;0.394;2023-02-13T04:05:51;101300.94;;;2.11;54.91
17311;BME280;8773;43.300;0.394;2023-02-13T04:08:21;101306.94;;;2.15;54.69
17311;BME280;8773;43.300;0.394;2023-02-13T04:10:53;101302.78;;;2.09;54.86
17311;BME280;8773;43.300;0.394;2023-02-13T04:13:27;101309.59;;;2.15;54.70
17311;BME280;8773;43.300;0.394;2023-02-13T04:16:03;101307.13;;;2.10;55.06
17311;BME280;8773;43.300;0.394;2023-02-13T04:18:33;101307.06;;;2.11;54.45
17311;BME280;8773;43.300;0.394;2023-02-13T04:21:06;101301.69;;;2.15;54.56
17311;BME280;8773;43.300;0.394;2023-02-13T04:23:34;101306.22;;;2.11;54.41
17311;BME280;8773;43.300;0.394;2023-02-13T04:26:06;101303.09;;;2.01;54.85
17311;BME280;8773;43.300;0.394;2023-02-13T04:28:35;101313.13;;;1.93;54.94
17311;BME280;8773;43.300;0.394;2023-02-13T04:31:06;101310.34;;;1.96;55.27
17311;BME280;8773;43.300;0.394;2023-02-13T04:33:35;101318.19;;;1.98;55.37
17311;BME280;8773;43.300;0.394;2023-02-13T04:36:03;101319.75;;;2.02;54.53
17311;BME280;8773;43.300;0.394;2023-02-13T04:38:34;101313.56;;;2.03;54.86
17311;BME280;8773;43.300;0.394;2023-02-13T04:41:04;101312.66;;;2.04;54.41
17311;BME280;8773;43.300;0.394;2023-02-13T04:43:32;101311.91;;;2.00;54.59
17311;BME280;8773;43.300;0.394;2023-02-13T04:46:00;101314.78;;;1.96;54.92
17311;BME280;8773;43.300;0.394;2023-02-13T04:48:28;101309.56;;;1.94;54.41
17311;BME280;8773;43.300;0.394;2023-02-13T04:50:57;101308.53;;;1.98;54.42
17311;BME280;8773;43.300;0.394;2023-02-13T04:53:25;101319.19;;;1.95;54.95
17311;BME280;8773;43.300;0.394;2023-02-13T04:55:53;101323.03;;;1.87;55.21
17311;BME280;8773;43.300;0.394;2023-02-13T04:58:23;101328.06;;;1.93;54.41
17311;BME280;8773;43.300;0.394;2023-02-13T05:00:51;101319.25;;;1.94;54.27
17311;BME280;8773;43.300;0.394;2023-02-13T05:03:19;101319.25;;;1.94;54.83
17311;BME280;8773;43.300;0.394;2023-02-13T05:05:48;101323.53;;;1.96;54.58
17311;BME280;8773;43.300;0.394;2023-02-13T05:08:16;101329.59;;;1.98;54.49
17311;BME280;8773;43.300;0.394;2023-02-13T05:10:44;101335.75;;;1.75;54.74
17311;BME280;8773;43.300;0.394;2023-02-13T05:13:12;101322.66;;;1.74;54.41
17311;BME280;8773;43.300;0.394;2023-02-13T05:15:43;101330.16;;;1.85;54.30
17311;BME280;8773;43.300;0.394;2023-02-13T05:18:12;101332.66;;;1.88;54.72
17311;BME280;8773;43.300;0.394;2023-02-13T05:20:42;101323.78;;;1.90;54.64
17311;BME280;8773;43.300;0.394;2023-02-13T05:23:13;101322.91;;;1.90;54.23
17311;BME280;8773;43.300;0.394;2023-02-13T05:25:56;101333.56;;;1.87;54.48
17311;BME280;8773;43.300;0.394;2023-02-13T05:28:24;101325.84;;;1.82;54.16
17311;BME280;8773;43.300;0.394;2023-02-13T05:31:11;101326.16;;;1.74;55.18
17311;BME280;8773;43.300;0.394;2023-02-13T05:33:42;101329.59;;;1.76;55.11
17311;BME280;8773;43.300;0.394;2023-02-13T05:36:11;101331.97;;;1.83;54.60
17311;BME280;8773;43.300;0.394;2023-02-13T05:38:39;101324.50;;;1.72;54.68
17311;BME280;8773;43.300;0.394;2023-02-13T05:41:07;101327.94;;;1.74;54.68
17311;BME280;8773;43.300;0.394;2023-02-13T05:43:35;101335.88;;;1.72;55.26
17311;BME280;8773;43.300;0.394;2023-02-13T05:46:05;101333.44;;;1.68;54.96
17311;BME280;8773;43.300;0.394;2023-02-13T05:48:34;101328.97;;;1.70;54.43
17311;BME280;8773;43.300;0.394;2023-02-13T05:51:03;101336.13;;;1.66;54.90
17311;BME280;8773;43.300;0.394;2023-02-13T05:53:32;101326.09;;;1.54;55.16
17311;BME280;8773;43.300;0.394;2023-02-13T05:56:01;101331.34;;;1.54;55.55
17311;BME280;8773;43.300;0.394;2023-02-13T05:58:30;101330.34;;;1.57;55.23
17311;BME280;8773;43.300;0.394;2023-02-13T06:00:58;101331.22;;;1.57;55.75
17311;BME280;8773;43.300;0.394;2023-02-13T06:03:28;101336.47;;;1.57;55.68
17311;BME280;8773;43.300;0.394;2023-02-13T06:05:58;101334.41;;;1.65;55.18
17311;BME280;8773;43.300;0.394;2023-02-13T06:08:26;101332.28;;;1.53;55.43
17311;BME280;8773;43.300;0.394;2023-02-13T06:10:54;101331.78;;;1.43;55.44
17311;BME280;8773;43.300;0.394;2023-02-13T06:13:22;101335.25;;;1.44;55.50
17311;BME280;8773;43.300;0.394;2023-02-13T06:15:50;101334.78;;;1.56;55.07
17311;BME280;8773;43.300;0.394;2023-02-13T06:18:18;101335.56;;;1.58;54.64
17311;BME280;8773;43.300;0.394;2023-02-13T06:20:46;101334.53;;;1.62;54.53
17311;BME280;8773;43.300;0.394;2023-02-13T06:23:16;101328.53;;;1.59;54.54
17311;BME280;8773;43.300;0.394;2023-02-13T06:25:44;101338.34;;;1.55;54.86
17311;BME280;8773;43.300;0.394;2023-02-13T06:28:12;101338.34;;;1.55;54.92
17311;BME280;8773;43.300;0.394;2023-02-13T06:30:40;101345.44;;;1.53;54.51
17311;BME280;8773;43.300;0.394;2023-02-13T06:33:08;101343.91;;;1.48;54.99
17311;BME280;8773;43.300;0.394;2023-02-13T06:35:37;101354.25;;;1.52;55.01
17311;BME280;8773;43.300;0.394;2023-02-13T06:38:05;101346.41;;;1.51;54.73
17311;BME280;8773;43.300;0.394;2023-02-13T06:40:37;101340.13;;;1.55;54.42
17311;BME280;8773;43.300;0.394;2023-02-13T06:43:05;101340.16;;;1.53;54.64
17311;BME280;8773;43.300;0.394;2023-02-13T06:45:33;101339.19;;;1.56;54.11
17311;BME280;8773;43.300;0.394;2023-02-13T06:48:02;101339.78;;;1.62;54.11
17311;BME280;8773;43.300;0.394;2023-02-13T06:50:30;101341.50;;;1.63;54.00
17311;BME280;8773;43.300;0.394;2023-02-13T06:52:59;101344.94;;;1.65;54.13
17311;BME280;8773;43.300;0.394;2023-02-13T06:55:27;101344.13;;;1.63;54.17
17311;BME280;8773;43.300;0.394;2023-02-13T06:57:56;101351.22;;;1.61;54.17
17311;BME280;8773;43.300;0.394;2023-02-13T07:00:25;101350.09;;;1.68;54.25
17311;BME280;8773;43.300;0.394;2023-02-13T07:02:53;101350.78;;;1.73;54.00
17311;BME280;8773;43.300;0.394;2023-02-13T07:05:21;101349.00;;;1.74;53.98
17311;BME280;8773;43.300;0.394;2023-02-13T07:07:49;101352.53;;;1.73;54.15
17311;BME280;8773;43.300;0.394;2023-02-13T07:10:17;101348.25;;;1.70;53.86
17311;BME280;8773;43.300;0.394;2023-02-13T07:12:45;101353.41;;;1.73;53.82
17311;BME280;8773;43.300;0.394;2023-02-13T07:15:32;101360.63;;;1.68;53.96
17311;BME280;8773;43.300;0.394;2023-02-13T07:18:01;101358.47;;;1.56;53.90
17311;BME280;8773;43.300;0.394;2023-02-13T07:20:29;101362.69;;;1.60;53.99
17311;BME280;8773;43.300;0.394;2023-02-13T07:22:57;101362.69;;;1.60;54.19
17311;BME280;8773;43.300;0.394;2023-02-13T07:25:29;101365.19;;;1.63;53.73
17311;BME280;8773;43.300;0.394;2023-02-13T07:28:00;101368.75;;;1.62;53.56
17311;BME280;8773;43.300;0.394;2023-02-13T07:30:29;101363.88;;;1.75;53.43
17311;BME280;8773;43.300;0.394;2023-02-13T07:33:00;101363.41;;;1.87;53.27
17311;BME280;8773;43.300;0.394;2023-02-13T07:35:28;101370.19;;;1.93;52.95
17311;BME280;8773;43.300;0.394;2023-02-13T07:37:56;101365.47;;;2.01;52.78
17311;BME280;8773;43.300;0.394;2023-02-13T07:40:26;101366.13;;;2.06;52.19
17311;BME280;8773;43.300;0.394;2023-02-13T07:42:54;101366.94;;;2.08;52.12
17311;BME280;8773;43.300;0.394;2023-02-13T07:45:22;101370.78;;;2.21;52.00
17311;BME280;8773;43.300;0.394;2023-02-13T07:47:50;101366.06;;;2.29;52.30
17311;BME280;8773;43.300;0.394;2023-02-13T07:50:25;101363.06;;;2.38;50.58
17311;BME280;8773;43.300;0.394;2023-02-13T07:52:58;101368.03;;;2.44;50.36
17311;BME280;8773;43.300;0.394;2023-02-13T07:55:26;101362.25;;;2.57;50.33
17311;BME280;8773;43.300;0.394;2023-02-13T07:57:55;101359.13;;;2.69;50.14
17311;BME280;8773;43.300;0.394;2023-02-13T08:00:23;101355.66;;;2.87;50.22
17311;BME280;8773;43.300;0.394;2023-02-13T08:02:51;101370.56;;;3.08;49.44
17311;BME280;8773;43.300;0.394;2023-02-13T08:05:19;101356.75;;;3.22;49.38
17311;BME280;8773;43.300;0.394;2023-02-13T08:07:48;101363.75;;;3.42;49.06
17311;BME280;8773;43.300;0.394;2023-02-13T08:10:16;101364.31;;;3.49;48.94
17311;BME280;8773;43.300;0.394;2023-02-13T08:13:03;101364.97;;;3.54;48.40
17311;BME280;8773;43.300;0.394;2023-02-13T08:15:31;101358.53;;;3.59;48.18
17311;BME280;8773;43.300;0.394;2023-02-13T08:17:59;101376.00;;;3.81;47.79
17311;BME280;8773;43.300;0.394;2023-02-13T08:20:27;101367.56;;;3.91;46.88
17311;BME280;8773;43.300;0.394;2023-02-13T08:23:03;101364.47;;;4.02;47.09
17311;BME280;8773;43.300;0.394;2023-02-13T08:25:31;101362.75;;;4.18;46.61
17311;BME280;8773;43.300;0.394;2023-02-13T08:28:00;101366.25;;;4.19;46.30
17311;BME280;8773;43.300;0.394;2023-02-13T08:30:30;101358.06;;;4.42;45.83
17311;BME280;8773;43.300;0.394;2023-02-13T08:32:59;101365.31;;;4.56;45.59
17311;BME280;8773;43.300;0.394;2023-02-13T08:35:27;101364.66;;;4.68;45.25
17311;BME280;8773;43.300;0.394;2023-02-13T08:38:02;101366.38;;;4.69;45.32
17311;BME280;8773;43.300;0.394;2023-02-13T08:40:30;101356.41;;;4.74;45.14
17311;BME280;8773;43.300;0.394;2023-02-13T08:42:59;101362.16;;;4.82;44.76
17311;BME280;8773;43.300;0.394;2023-02-13T08:45:28;101361.53;;;4.94;43.63
17311;BME280;8773;43.300;0.394;2023-02-13T08:47:56;101362.25;;;5.14;43.08
17311;BME280;8773;43.300;0.394;2023-02-13T08:50:25;101369.41;;;5.29;43.52
17311;BME280;8773;43.300;0.394;2023-02-13T08:52:53;101361.28;;;5.32;43.70
17311;BME280;8773;43.300;0.394;2023-02-13T08:55:23;101355.91;;;5.33;43.72
17311;BME280;8773;43.300;0.394;2023-02-13T08:57:51;101357.31;;;5.40;43.69
17311;BME280;8773;43.300;0.394;2023-02-13T09:00:20;101355.84;;;5.51;43.48
17311;BME280;8773;43.300;0.394;2023-02-13T09:02:48;101353.97;;;5.68;43.48
17311;BME280;8773;43.300;0.394;2023-02-13T09:05:16;101349.72;;;5.82;42.56
17311;BME280;8773;43.300;0.394;2023-02-13T09:07:44;101346.28;;;5.64;42.34
17311;BME280;8773;43.300;0.394;2023-02-13T09:10:12;101350.56;;;5.66;41.82
17311;BME280;8773;43.300;0.394;2023-02-13T09:12:42;101346.50;;;5.91;43.10
17311;BME280;8773;43.300;0.394;2023-02-13T09:15:10;101345.31;;;6.12;42.46
17311;BME280;8773;43.300;0.394;2023-02-13T09:17:38;101344.03;;;6.33;40.96
17311;BME280;8773;43.300;0.394;2023-02-13T09:20:07;101336.94;;;6.50;41.07
17311;BME280;8773;43.300;0.394;2023-02-13T09:22:35;101348.38;;;6.66;40.26
17311;BME280;8773;43.300;0.394;2023-02-13T09:25:03;101341.94;;;6.84;40.23
17311;BME280;8773;43.300;0.394;2023-02-13T09:27:32;101340.91;;;7.01;39.97
17311;BME280;8773;43.300;0.394;2023-02-13T09:30:03;101347.78;;;7.19;39.96
17311;BME280;8773;43.300;0.394;2023-02-13T09:32:31;101341.84;;;7.42;40.00
17311;BME280;8773;43.300;0.394;2023-02-13T09:35:03;101343.09;;;7.51;39.93
17311;BME280;8773;43.300;0.394;2023-02-13T09:37:34;101346.38;;;7.69;38.55
17311;BME280;8773;43.300;0.394;2023-02-13T09:40:02;101341.88;;;7.84;38.26
17311;BME280;8773;43.300;0.394;2023-02-13T09:42:32;101331.59;;;7.92;37.70
17311;BME280;8773;43.300;0.394;2023-02-13T09:45:05;101338.88;;;8.02;38.01
17311;BME280;8773;43.300;0.394;2023-02-13T09:47:36;101337.50;;;8.09;38.01
17311;BME280;8773;43.300;0.394;2023-02-13T09:50:12;101329.56;;;8.22;38.39
17311;BME280;8773;43.300;0.394;2023-02-13T09:52:43;101326.69;;;8.39;37.57
17311;BME280;8773;43.300;0.394;2023-02-13T09:55:16;101327.53;;;8.53;37.93
17311;BME280;8773;43.300;0.394;2023-02-13T09:57:51;101333.81;;;8.52;38.23
17311;BME280;8773;43.300;0.394;2023-02-13T10:00:25;101329.06;;;8.69;37.56
17311;BME280;8773;43.300;0.394;2023-02-13T10:03:17;101326.09;;;8.87;37.47
17311;BME280;8773;43.300;0.394;2023-02-13T10:05:52;101325.75;;;9.04;37.13
17311;BME280;8773;43.300;0.394;2023-02-13T10:08:38;101322.34;;;9.15;36.82
17311;BME280;8773;43.300;0.394;2023-02-13T10:11:21;101318.63;;;9.30;36.56
17311;BME280;8773;43.300;0.394;2023-02-13T10:14:03;101324.75;;;9.43;36.41
17311;BME280;8773;43.300;0.394;2023-02-13T10:16:37;101316.84;;;9.54;35.95
17311;BME280;8773;43.300;0.394;2023-02-13T10:19:15;101317.44;;;9.70;36.26
17311;BME280;8773;43.300;0.394;2023-02-13T10:21:49;101321.13;;;9.81;34.92
17311;BME280;8773;43.300;0.394;2023-02-13T10:24:27;101320.38;;;9.91;34.07
17311;BME280;8773;43.300;0.394;2023-02-13T10:26:58;101319.47;;;10.03;34.82
17311;BME280;8773;43.300;0.394;2023-02-13T10:29:39;101315.06;;;10.15;33.60
17311;BME280;8773;43.300;0.394;2023-02-13T10:32:36;101314.09;;;10.27;33.67
17311;BME280;8773;43.300;0.394;2023-02-13T10:35:17;101315.63;;;10.42;33.53
17311;BME280;8773;43.300;0.394;2023-02-13T10:37:46;101307.50;;;10.44;32.50
17311;BME280;8773;43.300;0.394;2023-02-13T10:40:17;101311.06;;;10.56;32.64
17311;BME280;8773;43.300;0.394;2023-02-13T10:42:51;101314.75;;;10.66;32.65
17311;BME280;8773;43.300;0.394;2023-02-13T10:45:38;101310.47;;;10.74;33.45
17311;BME280;8773;43.300;0.394;2023-02-13T10:48:34;101307.72;;;10.87;34.47
17311;BME280;8773;43.300;0.394;2023-02-13T10:51:08;101320.97;;;11.00;33.84
17311;BME280;8773;43.300;0.394;2023-02-13T10:53:51;101318.56;;;11.08;34.63
17311;BME280;8773;43.300;0.394;2023-02-13T10:56:30;101320.38;;;11.19;33.70
17311;BME280;8773;43.300;0.394;2023-02-13T10:59:16;101323.53;;;11.24;33.82
17311;BME280;8773;43.300;0.394;2023-02-13T11:01:53;101316.28;;;11.37;33.61
17311;BME280;8773;43.300;0.394;2023-02-13T11:04:24;101313.84;;;11.45;32.50
17311;BME280;8773;43.300;0.394;2023-02-13T11:06:55;101316.59;;;11.55;31.34
17311;BME280;8773;43.300;0.394;2023-02-13T11:09:24;101307.59;;;11.67;31.76
17311;BME280;8773;43.300;0.394;2023-02-13T11:11:53;101298.56;;;11.79;31.30
17311;BME280;8773;43.300;0.394;2023-02-13T11:14:22;101303.06;;;11.90;30.05
17311;BME280;8773;43.300;0.394;2023-02-13T11:16:56;101306.66;;;12.00;31.13
17311;BME280;8773;43.300;0.394;2023-02-13T11:19:29;101301.03;;;12.03;30.92
17311;BME280;8773;43.300;0.394;2023-02-13T11:22:02;101300.03;;;12.15;30.88
17311;BME280;8773;43.300;0.394;2023-02-13T11:24:31;101290.97;;;12.27;29.76
17311;BME280;8773;43.300;0.394;2023-02-13T11:27:02;101289.94;;;12.39;30.21
17311;BME280;8773;43.300;0.394;2023-02-13T11:29:36;101287.44;;;12.48;29.93
17311;BME280;8773;43.300;0.394;2023-02-13T11:32:18;101272.72;;;12.53;29.70
17311;BME280;8773;43.300;0.394;2023-02-13T11:34:48;101271.94;;;12.62;29.15
17311;BME280;8773;43.300;0.394;2023-02-13T11:37:25;101264.22;;;12.69;29.05
17311;BME280;8773;43.300;0.394;2023-02-13T11:39:56;101266.13;;;12.78;28.38
17311;BME280;8773;43.300;0.394;2023-02-13T11:42:29;101274.44;;;12.85;28.30
17311;BME280;8773;43.300;0.394;2023-02-13T11:44:59;101262.78;;;12.95;28.72
17311;BME280;8773;43.300;0.394;2023-02-13T11:47:35;101267.09;;;13.07;28.48
17311;BME280;8773;43.300;0.394;2023-02-13T11:50:20;101263.06;;;13.23;28.04
17311;BME280;8773;43.300;0.394;2023-02-13T11:52:55;101262.66;;;13.37;28.02
17311;BME280;8773;43.300;0.394;2023-02-13T11:55:30;101257.19;;;13.48;28.00
17311;BME280;8773;43.300;0.394;2023-02-13T11:58:03;101252.00;;;13.56;26.74
17311;BME280;8773;43.300;0.394;2023-02-13T12:00:33;101258.50;;;13.63;26.25
17311;BME280;8773;43.300;0.394;2023-02-13T12:03:24;101246.13;;;13.82;26.57
17311;BME280;8773;43.300;0.394;2023-02-13T12:06:04;101249.34;;;13.66;23.74
17311;BME280;8773;43.300;0.394;2023-02-13T12:08:34;101250.31;;;13.65;20.50
17311;BME280;8773;43.300;0.394;2023-02-13T12:11:13;101243.84;;;13.77;21.94
17311;BME280;8773;43.300;0.394;2023-02-13T12:13:44;101238.50;;;14.06;20.69
17311;BME280;8773;43.300;0.394;2023-02-13T12:16:18;101230.16;;;14.09;21.51
17311;BME280;8773;43.300;0.394;2023-02-13T12:18:52;101222.63;;;14.22;21.96
17311;BME280;8773;43.300;0.394;2023-02-13T12:21:35;101233.38;;;14.22;20.34
17311;BME280;8773;43.300;0.394;2023-02-13T12:24:13;101232.97;;;14.17;19.64
17311;BME280;8773;43.300;0.394;2023-02-13T12:26:51;101224.75;;;14.28;19.39
17311;BME280;8773;43.300;0.394;2023-02-13T12:29:43;101224.31;;;14.33;19.49
17311;BME280;8773;43.300;0.394;2023-02-13T12:32:18;101228.13;;;14.40;20.07
17311;BME280;8773;43.300;0.394;2023-02-13T12:35:07;101225.72;;;14.47;20.85
17311;BME280;8773;43.300;0.394;2023-02-13T12:37:54;101210.81;;;14.62;20.99
17311;BME280;8773;43.300;0.394;2023-02-13T12:40:46;101216.09;;;14.54;20.89
17311;BME280;8773;43.300;0.394;2023-02-13T12:43:39;101214.28;;;14.45;21.08
17311;BME280;8773;43.300;0.394;2023-02-13T12:46:19;101205.19;;;14.55;21.34
17311;BME280;8773;43.300;0.394;2023-02-13T12:48:54;101208.69;;;14.75;20.97
17311;BME280;8773;43.300;0.394;2023-02-13T12:51:36;101212.03;;;14.30;20.17
17311;BME280;8773;43.300;0.394;2023-02-13T12:54:22;101205.44;;;14.62;19.74
17311;BME280;8773;43.300;0.394;2023-02-13T12:57:17;101205.81;;;14.86;19.95
17311;BME280;8773;43.300;0.394;2023-02-13T13:00:02;101198.03;;;14.83;19.41
17311;BME280;8773;43.300;0.394;2023-02-13T13:05:52;101203.78;;;15.25;21.82
17311;BME280;8773;43.300;0.394;2023-02-13T13:08:50;101199.94;;;15.28;21.28
17311;BME280;8773;43.300;0.394;2023-02-13T13:11:34;101193.31;;;15.22;21.26
17311;BME280;8773;43.300;0.394;2023-02-13T13:14:12;101192.88;;;15.27;20.71
17311;BME280;8773;43.300;0.394;2023-02-13T13:16:47;101190.78;;;15.21;20.35
17311;BME280;8773;43.300;0.394;2023-02-13T13:19:28;101198.50;;;15.33;21.69
17311;BME280;8773;43.300;0.394;2023-02-13T13:22:03;101186.44;;;15.10;20.67
17311;BME280;8773;43.300;0.394;2023-02-13T13:24:41;101193.66;;;15.37;20.59
17311;BME280;8773;43.300;0.394;2023-02-13T13:27:19;101191.56;;;15.31;19.95
17311;BME280;8773;43.300;0.394;2023-02-13T13:29:53;101188.88;;;15.31;20.26
17311;BME280;8773;43.300;0.394;2023-02-13T13:32:25;101177.06;;;15.59;20.16
17311;BME280;8773;43.300;0.394;2023-02-13T13:34:54;101171.34;;;15.27;18.87
17311;BME280;8773;43.300;0.394;2023-02-13T13:37:30;101161.75;;;15.42;19.24
17311;BME280;8773;43.300;0.394;2023-02-13T13:40:15;101157.97;;;15.70;18.34
17311;BME280;8773;43.300;0.394;2023-02-13T13:42:57;101160.09;;;15.77;19.57
17311;BME280;8773;43.300;0.394;2023-02-13T13:45:37;101152.13;;;15.93;20.32
17311;BME280;8773;43.300;0.394;2023-02-13T13:48:25;101152.91;;;16.03;20.27